Randolph, Ohio
Current Conditions -  °F | °C
As of 3:54 PM on Thursday 20 Nov 2014 (Local Time) from KAKR Reporting Station
Overcast Overcast  
Wind Chill: 13°   Ceiling: 4500
Heat Index: 26°   Visibility: 10mi
Dew Point: 12°   Wind: 18mph
Humidity: 55%   Direction: 250°WSW
Pressure: 29.99"   Gusts: 25mph
Location:  41.03°N, 81.25°W
Report Text: KAKR 202054Z AUTO 25016G22KT 10SM BKN045 OVC050 M03/M11 A2999 RMK AO2 PK WND 27026/2018 SLP170 T10331111 53007 $
Loading
Personal Weather Stations






























Interactive Weather Map New forecast layout! Learn more

10-Day Weather Forecast

Advertisements
Track Severe Weather on mobile